createdAt,value
2022-08-17T00:02:26.768Z,100975.31
2022-08-17T00:04:54.666Z,100982.06
2022-08-17T00:07:21.380Z,100974.44
2022-08-17T00:09:48.187Z,100979.53
2022-08-17T00:12:40.945Z,100972.00
2022-08-17T00:15:02.207Z,100975.59
2022-08-17T00:17:29.137Z,100976.75
2022-08-17T00:19:55.839Z,100978.28
2022-08-17T00:22:34.842Z,100976.69
2022-08-17T00:25:08.020Z,100975.50
2022-08-17T00:27:35.313Z,100974.44
2022-08-17T00:30:02.127Z,100972.09
2022-08-17T00:33:14.905Z,100969.75
2022-08-17T00:35:18.436Z,100979.28
2022-08-17T00:37:45.411Z,100964.56
2022-08-17T00:40:15.188Z,100958.88
2022-08-17T00:42:44.414Z,100964.00
2022-08-17T00:45:14.237Z,100965.88
2022-08-17T00:47:42.004Z,100960.31
2022-08-17T00:50:11.453Z,100952.69
2022-08-17T00:52:44.262Z,100960.16
2022-08-17T00:55:11.646Z,100951.09
2022-08-17T00:57:43.696Z,100953.88
2022-08-17T01:00:18.881Z,100948.66
2022-08-17T01:02:47.408Z,100955.84
2022-08-17T01:05:19.693Z,100948.66
2022-08-17T01:07:50.802Z,100957.38
2022-08-17T01:10:59.083Z,100958.47
2022-08-17T01:13:10.793Z,100958.38
2022-08-17T01:15:41.473Z,100953.53
2022-08-17T01:18:14.805Z,100947.53
2022-08-17T01:20:48.150Z,100953.53
2022-08-17T01:23:16.408Z,100945.63
2022-08-17T01:25:51.526Z,100957.22
2022-08-17T01:28:52.555Z,100952.44
2022-08-17T01:31:08.153Z,100950.13
2022-08-17T01:33:35.469Z,100965.63
2022-08-17T01:36:02.721Z,100954.16
2022-08-17T01:38:31.799Z,100970.03
2022-08-17T01:41:06.667Z,100972.44
2022-08-17T01:43:41.666Z,100971.75
2022-08-17T01:46:08.348Z,100976.88
2022-08-17T01:48:38.845Z,100980.53
2022-08-17T01:51:07.648Z,100968.69
2022-08-17T01:53:42.672Z,100980.09
2022-08-17T01:56:12.780Z,100981.09
2022-08-17T01:58:40.714Z,100985.06
2022-08-17T02:01:08.351Z,100983.97
2022-08-17T02:03:36.541Z,100986.75
2022-08-17T02:06:06.076Z,100986.38
2022-08-17T02:08:57.002Z,100983.59
2022-08-17T02:11:31.256Z,100977.31
2022-08-17T02:14:03.123Z,100974.97
2022-08-17T02:16:37.601Z,100972.56
2022-08-17T02:19:10.758Z,100978.13
2022-08-17T02:21:39.532Z,100976.97
2022-08-17T02:24:10.973Z,100984.06
2022-08-17T02:26:37.712Z,100972.44
2022-08-17T02:29:04.625Z,100986.84
2022-08-17T02:31:31.760Z,100976.16
2022-08-17T02:34:03.668Z,100975.44
2022-08-17T02:36:36.144Z,100973.00
2022-08-17T02:39:05.756Z,100971.28
2022-08-17T02:41:32.432Z,100979.47
2022-08-17T02:43:59.223Z,100973.91
2022-08-17T02:46:26.213Z,100974.00
2022-08-17T02:48:52.866Z,100966.09
2022-08-17T02:51:20.109Z,100966.88
2022-08-17T02:53:46.897Z,100975.72
2022-08-17T02:56:13.840Z,100973.72
2022-08-17T02:58:40.589Z,100974.09
2022-08-17T03:01:09.551Z,100973.28
2022-08-17T03:03:37.651Z,100968.50
2022-08-17T03:06:05.099Z,100970.16
2022-08-17T03:08:31.849Z,100965.28
2022-08-17T03:10:58.596Z,100960.88
2022-08-17T03:13:25.375Z,100961.25
2022-08-17T03:15:52.033Z,100964.84
2022-08-17T03:18:24.784Z,100975.50
2022-08-17T03:20:58.311Z,100966.00
2022-08-17T03:23:27.306Z,100976.00
2022-08-17T03:25:55.541Z,100967.97
2022-08-17T03:28:23.485Z,100972.28
2022-08-17T03:30:51.381Z,100976.00
2022-08-17T03:33:19.057Z,100965.28
2022-08-17T03:35:45.926Z,100970.84
2022-08-17T03:38:15.234Z,100980.47
2022-08-17T03:40:57.631Z,100979.75
2022-08-17T03:43:31.958Z,100973.09
2022-08-17T03:46:34.459Z,100971.47
2022-08-17T03:49:25.477Z,100974.97
2022-08-17T03:52:11.547Z,100983.06
2022-08-17T03:54:57.573Z,100983.13
2022-08-17T03:57:24.767Z,100981.16
2022-08-17T03:59:52.248Z,100987.88
2022-08-17T04:02:21.426Z,100980.78
2022-08-17T04:04:52.475Z,100977.28
2022-08-17T04:07:20.895Z,100986.44
2022-08-17T04:09:47.845Z,100986.09
2022-08-17T04:12:16.518Z,100991.28
2022-08-17T04:14:53.540Z,100988.94
2022-08-17T04:17:28.279Z,100988.94
2022-08-17T04:19:55.544Z,100998.47
2022-08-17T04:22:32.479Z,100990.47
2022-08-17T04:25:20.051Z,100990.56
2022-08-17T04:27:49.020Z,100990.56
2022-08-17T04:30:16.089Z,100992.09
2022-08-17T04:33:10.588Z,100994.06
2022-08-17T04:35:50.148Z,100986.16
2022-08-17T04:38:20.087Z,100996.94
2022-08-17T04:41:05.454Z,100998.47
2022-08-17T04:43:33.577Z,100998.56
2022-08-17T04:46:03.560Z,100999.22
2022-08-17T04:48:42.731Z,101000.22
2022-08-17T04:51:17.513Z,101005.41
2022-08-17T04:53:53.963Z,100998.50
2022-08-17T04:56:22.695Z,100996.69
2022-08-17T04:58:51.686Z,101005.50
2022-08-17T05:01:23.709Z,100995.09
2022-08-17T05:03:56.803Z,101009.44
2022-08-17T05:06:24.003Z,101021.28
2022-08-17T05:08:51.242Z,101011.34
2022-08-17T05:11:18.807Z,101011.63
2022-08-17T05:13:45.722Z,101016.00
2022-08-17T05:16:12.454Z,101018.06
2022-08-17T05:18:39.205Z,101025.25
2022-08-17T05:21:06.845Z,101016.81
2022-08-17T05:23:42.515Z,101023.53
2022-08-17T05:26:26.225Z,101024.25
2022-08-17T05:28:55.429Z,101024.16
2022-08-17T05:31:24.586Z,101023.47
2022-08-17T05:33:53.338Z,101026.69
2022-08-17T05:36:41.808Z,101034.91
2022-08-17T05:39:06.866Z,101019.75
2022-08-17T05:41:33.544Z,101024.63
2022-08-17T05:44:00.225Z,101035.38
2022-08-17T05:46:35.283Z,101036.56
2022-08-17T05:49:08.133Z,101039.66
2022-08-17T05:52:00.284Z,101036.56
2022-08-17T05:54:41.825Z,101040.16
2022-08-17T05:57:08.513Z,101040.16
2022-08-17T05:59:53.043Z,101048.22
2022-08-17T06:02:22.440Z,101055.75
2022-08-17T06:04:57.501Z,101041.75
2022-08-17T06:07:48.567Z,101046.50
2022-08-17T06:10:34.041Z,101048.56
2022-08-17T06:13:03.665Z,101049.09
2022-08-17T06:15:44.059Z,101053.97
2022-08-17T06:18:15.930Z,101052.44
2022-08-17T06:21:01.850Z,101054.06
2022-08-17T06:23:47.374Z,101059.53
2022-08-17T06:26:21.569Z,101069.03
2022-08-17T06:29:18.771Z,101070.22
2022-08-17T06:31:46.236Z,101079.00
2022-08-17T06:34:13.257Z,101076.22
2022-08-17T06:36:54.334Z,101079.09
2022-08-17T06:39:27.953Z,101071.56
2022-08-17T06:43:02.173Z,101079.91
2022-08-17T06:45:06.858Z,101078.72
2022-08-17T06:47:36.565Z,101073.63
2022-08-17T06:50:15.750Z,101069.69
2022-08-17T06:52:50.462Z,101075.78
2022-08-17T06:55:37.870Z,101079.81
2022-08-17T06:58:16.125Z,101069.56
2022-08-17T07:00:47.243Z,101071.56
2022-08-17T07:03:28.952Z,101076.78
2022-08-17T07:06:03.604Z,101077.69
2022-08-17T07:08:52.075Z,101079.28
2022-08-17T07:11:46.555Z,101080.97
2022-08-17T07:14:36.568Z,101083.03
2022-08-17T07:17:08.799Z,101079.91
2022-08-17T07:19:40.709Z,101074.78
2022-08-17T07:22:30.337Z,101084.03
2022-08-17T07:25:20.806Z,101086.81
2022-08-17T07:27:54.450Z,101091.66
2022-08-17T07:30:27.100Z,101087.34
2022-08-17T07:32:59.299Z,101091.84
2022-08-17T07:35:31.404Z,101095.09
2022-08-17T07:38:25.028Z,101084.75
2022-08-17T07:41:02.617Z,101087.16
2022-08-17T07:43:46.957Z,101084.38
2022-08-17T07:46:42.291Z,101079.25
2022-08-17T07:49:08.994Z,101073.63
2022-08-17T07:51:36.584Z,101083.94
2022-08-17T07:54:29.449Z,101075.88
2022-08-17T07:56:57.472Z,101078.22
2022-08-17T07:59:31.125Z,101080.63
2022-08-17T08:02:05.319Z,101088.34
2022-08-17T08:04:59.668Z,101090.88
2022-08-17T08:07:32.085Z,101090.50
2022-08-17T08:10:12.087Z,101084.66
2022-08-17T08:12:45.723Z,101088.44
2022-08-17T08:15:26.178Z,101094.00
2022-08-17T08:17:58.777Z,101085.19
2022-08-17T08:20:42.480Z,101087.00
2022-08-17T08:23:25.673Z,101083.19
2022-08-17T08:26:05.438Z,101083.28
2022-08-17T08:28:43.497Z,101083.34
2022-08-17T08:31:27.340Z,101086.31
2022-08-17T08:34:01.357Z,101079.25
2022-08-17T08:37:13.075Z,101082.13
2022-08-17T08:39:52.250Z,101081.03
2022-08-17T08:42:33.199Z,101081.56
2022-08-17T08:45:05.396Z,101081.66
2022-08-17T08:47:45.116Z,101076.16
2022-08-17T08:50:37.120Z,101073.84
2022-08-17T08:53:24.120Z,101073.28
2022-08-17T08:56:12.649Z,101074.97
2022-08-17T08:59:00.541Z,101079.88
2022-08-17T09:01:51.960Z,101085.44
2022-08-17T09:05:02.790Z,101081.88
2022-08-17T09:07:47.832Z,101090.28
2022-08-17T09:10:39.173Z,101096.75
2022-08-17T09:13:43.521Z,101089.66
2022-08-17T09:16:16.581Z,101090.50
2022-08-17T09:19:02.770Z,101100.59
2022-08-17T09:21:38.625Z,101091.44
2022-08-17T09:24:25.138Z,101095.22
2022-08-17T09:27:01.063Z,101092.56
2022-08-17T09:29:35.286Z,101097.53
2022-08-17T09:32:09.768Z,101103.25
2022-08-17T09:34:47.130Z,101101.84
2022-08-17T09:37:21.753Z,101104.00
2022-08-17T09:40:37.818Z,101109.28
2022-08-17T09:43:12.709Z,101099.44
2022-08-17T09:46:01.890Z,101107.50
2022-08-17T09:48:40.716Z,101108.47
2022-08-17T09:51:15.598Z,101122.56
2022-08-17T09:53:44.696Z,101123.44
2022-08-17T09:56:26.921Z,101127.97
2022-08-17T09:59:16.966Z,101129.88
2022-08-17T10:02:34.081Z,101121.09
2022-08-17T10:05:12.100Z,101123.63
2022-08-17T10:07:44.778Z,101123.00
2022-08-17T10:10:36.050Z,101130.31
2022-08-17T10:13:20.067Z,101133.53
2022-08-17T10:16:08.162Z,101141.97
2022-08-17T10:18:35.489Z,101137.66
2022-08-17T10:21:28.853Z,101141.75
2022-08-17T10:25:01.959Z,101139.44
2022-08-17T10:27:49.171Z,101135.56
2022-08-17T10:30:18.857Z,101133.00
2022-08-17T10:32:48.210Z,101135.69
2022-08-17T10:35:47.362Z,101138.63
2022-08-17T10:38:46.249Z,101136.72
2022-08-17T10:41:35.798Z,101141.97
2022-08-17T10:44:38.016Z,101139.47
2022-08-17T10:47:17.733Z,101143.34
2022-08-17T10:49:54.214Z,101139.19
2022-08-17T10:52:24.915Z,101133.09
2022-08-17T10:54:56.688Z,101140.28
2022-08-17T10:57:31.881Z,101129.97
2022-08-17T11:00:33.953Z,101128.41
2022-08-17T11:03:01.178Z,101126.81
2022-08-17T11:06:06.473Z,101128.47
2022-08-17T11:09:04.078Z,101131.66
2022-08-17T11:11:43.480Z,101140.81
2022-08-17T11:14:11.281Z,101138.91
2022-08-17T11:16:47.992Z,101140.47
2022-08-17T11:19:36.996Z,101143.22
2022-08-17T11:22:06.683Z,101143.19
2022-08-17T11:24:45.635Z,101140.72
2022-08-17T11:27:34.441Z,101137.91
2022-08-17T11:30:06.152Z,101132.66
2022-08-17T11:32:37.388Z,101141.09
2022-08-17T11:35:22.182Z,101138.38
2022-08-17T11:38:02.956Z,101138.50
2022-08-17T11:41:07.169Z,101144.50
2022-08-17T11:44:15.478Z,101146.56
2022-08-17T11:47:00.893Z,101149.06
2022-08-17T11:49:58.729Z,101145.94
2022-08-17T11:52:47.524Z,101156.19
2022-08-17T11:55:36.334Z,101154.31
2022-08-17T11:58:29.661Z,101155.19
2022-08-17T12:01:13.454Z,101154.94
2022-08-17T12:03:55.552Z,101167.38
2022-08-17T12:06:41.652Z,101157.44
2022-08-17T12:09:21.134Z,101166.69
2022-08-17T12:12:12.554Z,101161.97
2022-08-17T12:15:08.878Z,101157.97
2022-08-17T12:17:39.567Z,101158.06
2022-08-17T12:20:31.638Z,101145.25
2022-08-17T12:23:09.928Z,101143.66
2022-08-17T12:25:45.943Z,101138.06
2022-08-17T12:28:28.033Z,101138.50
2022-08-17T12:31:03.917Z,101137.38
2022-08-17T12:33:30.949Z,101137.00
2022-08-17T12:36:03.172Z,101128.69
2022-08-17T12:38:36.257Z,101123.09
2022-08-17T12:41:24.579Z,101123.13
2022-08-17T12:44:09.607Z,101118.78
2022-08-17T12:47:00.959Z,101123.63
2022-08-17T12:49:35.704Z,101123.66
2022-08-17T12:52:05.834Z,101118.47
2022-08-17T12:54:47.754Z,101129.75
2022-08-17T12:57:20.034Z,101117.78
2022-08-17T12:59:49.157Z,101125.13
2022-08-17T13:02:28.442Z,101115.91
2022-08-17T13:04:58.679Z,101118.31
2022-08-17T13:07:27.856Z,101111.53
2022-08-17T13:09:54.787Z,101110.72
2022-08-17T13:12:30.937Z,101114.38
2022-08-17T13:14:58.281Z,101109.97
2022-08-17T13:17:32.453Z,101103.53
2022-08-17T13:19:59.501Z,101099.50
2022-08-17T13:22:28.587Z,101094.69
2022-08-17T13:24:58.860Z,101091.47
2022-08-17T13:27:27.753Z,101090.66
2022-08-17T13:29:59.638Z,101083.47
2022-08-17T13:32:41.291Z,101090.31
2022-08-17T13:35:39.298Z,101089.50
2022-08-17T13:38:09.034Z,101086.69
2022-08-17T13:40:44.811Z,101079.44
2022-08-17T13:43:12.115Z,101086.63
2022-08-17T13:46:08.939Z,101087.41
2022-08-17T13:48:35.898Z,101094.25
2022-08-17T13:51:11.729Z,101092.66
2022-08-17T13:53:40.431Z,101095.88
2022-08-17T13:56:33.436Z,101094.25
2022-08-17T13:59:53.520Z,101099.47
2022-08-17T14:02:16.377Z,101094.22
2022-08-17T14:04:44.439Z,101095.78
2022-08-17T14:07:15.423Z,101101.00
2022-08-17T14:10:06.889Z,101092.16
2022-08-17T14:12:35.183Z,101086.91
2022-08-17T14:15:02.636Z,101088.97
2022-08-17T14:17:36.342Z,101088.19
2022-08-17T14:20:09.526Z,101082.97
2022-08-17T14:22:39.692Z,101080.59
2022-08-17T14:25:08.608Z,101083.78
2022-08-17T14:27:52.419Z,101082.22
2022-08-17T14:30:25.436Z,101069.38
2022-08-17T14:32:54.602Z,101084.63
2022-08-17T14:35:23.312Z,101081.81
2022-08-17T14:37:51.610Z,101080.63
2022-08-17T14:40:21.818Z,101084.22
2022-08-17T14:42:49.981Z,101076.59
2022-08-17T14:45:31.812Z,101075.41
2022-08-17T14:48:07.848Z,101072.63
2022-08-17T14:50:36.603Z,101071.00
2022-08-17T14:53:06.126Z,101071.41
2022-08-17T14:55:33.305Z,101053.34
2022-08-17T14:58:00.154Z,101052.53
2022-08-17T15:00:28.695Z,101052.16
2022-08-17T15:03:00.087Z,101057.34
2022-08-17T15:05:33.736Z,101050.94
2022-08-17T15:08:01.889Z,101052.13
2022-08-17T15:10:29.940Z,101051.31
2022-08-17T15:12:57.466Z,101060.16
2022-08-17T15:15:24.844Z,101051.75
2022-08-17T15:17:51.859Z,101046.94
2022-08-17T15:20:24.829Z,101052.94
2022-08-17T15:22:55.752Z,101049.34
2022-08-17T15:25:24.467Z,101048.13
2022-08-17T15:27:52.121Z,101045.72
2022-08-17T15:30:19.997Z,101038.09
2022-08-17T15:32:51.455Z,101032.88
2022-08-17T15:35:27.908Z,101036.91
2022-08-17T15:38:10.589Z,101040.09
2022-08-17T15:40:42.419Z,101028.81
2022-08-17T15:43:12.438Z,101033.56
2022-08-17T15:45:40.131Z,101029.41
2022-08-17T15:48:07.147Z,101028.84
2022-08-17T15:50:33.918Z,101025.22
2022-08-17T15:53:02.004Z,101026.91
2022-08-17T15:55:33.671Z,101032.47
2022-08-17T15:58:01.215Z,101023.56
2022-08-17T16:00:29.520Z,101030.28
2022-08-17T16:03:14.151Z,101021.81
2022-08-17T16:05:46.921Z,101026.56
2022-08-17T16:08:20.152Z,101020.88
2022-08-17T16:10:48.418Z,101015.97
2022-08-17T16:13:17.404Z,101018.81
2022-08-17T16:15:45.039Z,101011.25
2022-08-17T16:18:18.025Z,101010.09
2022-08-17T16:20:44.789Z,101008.16
2022-08-17T16:23:18.531Z,101004.22
2022-08-17T16:25:53.202Z,101009.19
2022-08-17T16:28:30.893Z,100997.63
2022-08-17T16:31:03.084Z,101006.97
2022-08-17T16:33:30.236Z,101009.44
2022-08-17T16:35:57.075Z,101017.53
2022-08-17T16:38:23.791Z,101017.97
2022-08-17T16:40:50.546Z,101009.16
2022-08-17T16:43:17.419Z,101004.34
2022-08-17T16:45:47.546Z,101004.72
2022-08-17T16:48:18.526Z,101012.34
2022-08-17T16:51:04.505Z,100999.94
2022-08-17T16:53:31.875Z,100994.72
2022-08-17T16:55:58.647Z,100997.94
2022-08-17T16:58:25.401Z,100987.88
2022-08-17T17:00:52.209Z,100984.66
2022-08-17T17:03:23.888Z,100994.28
2022-08-17T17:05:57.727Z,100987.06
2022-08-17T17:08:48.514Z,100989.50
2022-08-17T17:11:23.234Z,100985.91
2022-08-17T17:14:08.534Z,100979.09
2022-08-17T17:16:41.149Z,100969.47
2022-08-17T17:19:34.708Z,100969.03
2022-08-17T17:22:18.362Z,100974.28
2022-08-17T17:25:09.453Z,100977.47
2022-08-17T17:27:49.796Z,100978.28
2022-08-17T17:30:24.790Z,100984.69
2022-08-17T17:33:12.367Z,100982.28
2022-08-17T17:35:50.617Z,100977.06
2022-08-17T17:38:23.394Z,100988.28
2022-08-17T17:41:03.180Z,100985.03
2022-08-17T17:43:39.947Z,100987.88
2022-08-17T17:46:39.383Z,100986.63
2022-08-17T17:49:06.633Z,100987.44
2022-08-17T17:52:13.174Z,100995.06
2022-08-17T17:55:02.575Z,100995.06
2022-08-17T17:57:58.848Z,100988.63
2022-08-17T18:00:41.021Z,100979.75
2022-08-17T18:03:34.186Z,100983.34
2022-08-17T18:06:03.498Z,100988.09
2022-08-17T18:08:57.974Z,100988.50
2022-08-17T18:11:51.525Z,100995.69
2022-08-17T18:14:43.248Z,100995.28
2022-08-17T18:17:14.452Z,100997.66
2022-08-17T18:19:41.541Z,100994.00
2022-08-17T18:22:16.753Z,100994.38
2022-08-17T18:24:47.454Z,100999.53
2022-08-17T18:27:26.067Z,101008.28
2022-08-17T18:29:56.756Z,101003.44
2022-08-17T18:32:49.892Z,101007.44
2022-08-17T18:35:19.875Z,101020.25
2022-08-17T18:37:56.022Z,101013.78
2022-08-17T18:40:32.798Z,101013.72
2022-08-17T18:43:05.186Z,101005.69
2022-08-17T18:45:48.101Z,101005.63
2022-08-17T18:48:33.045Z,101003.19
2022-08-17T18:51:40.752Z,100993.13
2022-08-17T18:54:21.205Z,100995.09
2022-08-17T18:56:56.492Z,100990.28
2022-08-17T18:59:43.926Z,101000.31
2022-08-17T19:02:23.123Z,100997.50
2022-08-17T19:05:23.627Z,100987.44
2022-08-17T19:07:50.633Z,101001.47
2022-08-17T19:10:18.986Z,100992.25
2022-08-17T19:12:53.159Z,101000.53
2022-08-17T19:15:31.201Z,100997.28
2022-08-17T19:18:00.441Z,100993.97
2022-08-17T19:20:35.455Z,101000.38
2022-08-17T19:23:23.749Z,100999.50
2022-08-17T19:25:54.272Z,101004.75
2022-08-17T19:28:33.295Z,101000.72
2022-08-17T19:31:09.134Z,101003.84
2022-08-17T19:33:37.580Z,100997.38
2022-08-17T19:36:26.535Z,100995.34
2022-08-17T19:38:59.455Z,100999.25
2022-08-17T19:41:42.928Z,100990.84
2022-08-17T19:44:17.784Z,100989.22
2022-08-17T19:47:01.001Z,100986.81
2022-08-17T19:49:46.723Z,100993.59
2022-08-17T19:52:34.467Z,100994.41
2022-08-17T19:55:09.015Z,100988.78
2022-08-17T19:57:54.154Z,100983.13
2022-08-17T20:00:21.215Z,100991.53
2022-08-17T20:03:32.885Z,100972.72
2022-08-17T20:06:12.635Z,100973.84
2022-08-17T20:09:00.981Z,100982.22
2022-08-17T20:11:46.731Z,100968.63
2022-08-17T20:14:20.675Z,100976.19
2022-08-17T20:16:48.538Z,100984.13
2022-08-17T20:19:31.111Z,100986.53
2022-08-17T20:22:09.744Z,100986.09
2022-08-17T20:25:03.963Z,100987.75
2022-08-17T20:27:36.220Z,100993.75
2022-08-17T20:30:33.195Z,101000.56
2022-08-17T20:33:02.337Z,100992.63
2022-08-17T20:35:29.987Z,100991.00
2022-08-17T20:37:56.650Z,100991.00
2022-08-17T20:40:28.068Z,100991.81
2022-08-17T20:42:56.077Z,100989.03
2022-08-17T20:45:25.157Z,100975.00
2022-08-17T20:48:36.377Z,100978.19
2022-08-17T20:51:09.683Z,100966.19
2022-08-17T20:53:49.169Z,100976.56
2022-08-17T20:56:43.929Z,100965.44
2022-08-17T20:59:25.918Z,100950.63
2022-08-17T21:02:18.555Z,100948.66
2022-08-17T21:04:52.931Z,100948.66
2022-08-17T21:07:33.022Z,100945.81
2022-08-17T21:10:19.588Z,100944.56
2022-08-17T21:12:53.901Z,100946.16
2022-08-17T21:16:02.901Z,100943.75
2022-08-17T21:18:55.134Z,100937.34
2022-08-17T21:21:34.507Z,100934.91
2022-08-17T21:24:13.281Z,100930.53
2022-08-17T21:27:09.991Z,100938.16
2022-08-17T21:30:11.939Z,100942.13
2022-08-17T21:32:41.943Z,100946.50
2022-08-17T21:35:15.775Z,100946.44
2022-08-17T21:37:45.502Z,100941.19
2022-08-17T21:40:18.219Z,100944.38
2022-08-17T21:42:55.728Z,100948.00
2022-08-17T21:45:25.593Z,100959.88
2022-08-17T21:48:13.985Z,100949.84
2022-08-17T21:50:43.772Z,100942.28
2022-08-17T21:53:22.239Z,100942.63
2022-08-17T21:55:50.380Z,100936.19
2022-08-17T21:58:40.350Z,100936.06
2022-08-17T22:01:12.984Z,100938.44
2022-08-17T22:03:41.211Z,100934.38
2022-08-17T22:06:28.648Z,100930.31
2022-08-17T22:09:11.374Z,100946.19
2022-08-17T22:11:52.804Z,100931.78
2022-08-17T22:14:52.466Z,100923.84
2022-08-17T22:17:23.573Z,100919.00
2022-08-17T22:19:59.808Z,100904.97
2022-08-17T22:23:18.351Z,100905.41
2022-08-17T22:26:09.484Z,100903.03
2022-08-17T22:28:46.566Z,100903.47
2022-08-17T22:31:16.977Z,100904.66
2022-08-17T22:33:51.064Z,100910.31
2022-08-17T22:36:22.875Z,100897.56
2022-08-17T22:38:51.473Z,100901.66
2022-08-17T22:41:27.135Z,100910.50
2022-08-17T22:43:56.357Z,100911.78
2022-08-17T22:46:24.455Z,100910.66
2022-08-17T22:48:56.032Z,100909.09
2022-08-17T22:51:25.732Z,100900.34
2022-08-17T22:54:15.131Z,100894.34
2022-08-17T22:57:18.697Z,100898.78
2022-08-17T22:59:52.747Z,100893.97
2022-08-17T23:02:28.771Z,100890.81
2022-08-17T23:05:13.016Z,100883.22
2022-08-17T23:07:46.769Z,100874.03
2022-08-17T23:10:14.771Z,100879.22
2022-08-17T23:12:41.520Z,100878.00
2022-08-17T23:15:15.588Z,100884.44
2022-08-17T23:17:43.247Z,100884.06
2022-08-17T23:20:15.328Z,100884.81
2022-08-17T23:22:51.844Z,100877.25
2022-08-17T23:25:30.494Z,100878.06
2022-08-17T23:28:01.772Z,100883.63
2022-08-17T23:30:31.265Z,100873.28
2022-08-17T23:33:01.304Z,100876.47
2022-08-17T23:35:38.904Z,100872.47
2022-08-17T23:38:07.693Z,100878.88
2022-08-17T23:40:34.593Z,100874.84
2022-08-17T23:43:05.895Z,100880.78
2022-08-17T23:45:39.980Z,100873.97
2022-08-17T23:48:08.016Z,100870.78
2022-08-17T23:50:38.023Z,100861.22
2022-08-17T23:53:06.118Z,100863.63
2022-08-17T23:55:34.764Z,100854.84
2022-08-17T23:58:04.075Z,100853.25
